| time (UTC) | temp C | wind direction | speed KPH | gust KPH | rain 1hr cm | rain 24hr cm | rain mn cm | humidity % | barometer mb |
| 20260505122446 | 3 | 41 | 3.2 | 9.7 | 0.15 | 0.53 | 0.18 | 93 | 1014.1 |
| 20260505121945 | 3 | 323 | 3.2 | 11.3 | 0.15 | 0.53 | 0.18 | 93 | 1014.3 |
| 20260505121445 | 3 | 302 | 3.2 | 11.3 | 0.13 | 0.51 | 0.18 | 93 | 1014.3 |
| 20260505120945 | 3 | 300 | 3.2 | 11.3 | 0.13 | 0.51 | 0.15 | 92 | 1014.4 |
| 20260505120445 | 3 | 323 | 3.2 | 9.7 | 0.13 | 0.51 | 0.15 | 92 | 1014.4 |
| 20260505115946 | 3 | 285 | 3.2 | 9.7 | 0.10 | 0.48 | 0.13 | 92 | 1014.4 |
| 20260505115446 | 3 | 354 | 4.8 | 14.5 | 0.08 | 0.46 | 0.10 | 92 | 1014.2 |
| 20260505114945 | 3 | 301 | 4.8 | 16.1 | 0.05 | 0.43 | 0.08 | 92 | 1014.1 |
| 20260505114446 | 3 | 11 | 3.2 | 16.1 | 0.05 | 0.43 | 0.08 | 91 | 1014.1 |
| 20260505113946 | 3 | 328 | 3.2 | 16.1 | 0.05 | 0.43 | 0.08 | 91 | 1013.9 |
| 20260505113444 | 3 | 356 | 4.8 | 16.1 | 0.00 | 0.38 | 0.05 | 91 | 1013.9 |
| 20260505112944 | 3 | 359 | 4.8 | 16.1 | 0.00 | 0.38 | 0.03 | 90 | 1013.9 |
| 20260505112446 | 4 | 28 | 4.8 | 12.9 | 0.00 | 0.38 | 0.03 | 90 | 1013.8 |
| 20260505111951 | 4 | 347 | 3.2 | 12.9 | 0.00 | 0.38 | 0.03 | 90 | 1013.7 |
| 20260505111945 | 4 | 53 | 4.8 | 12.9 | 0.00 | 0.38 | 0.03 | 90 | 1013.7 |
| 20260505111605 | 5 | 359 | 3.2 | 12.9 | 0.00 | 0.38 | 0.03 | 89 | 1013.6 |
| 20260505110446 | 5 | 50 | 4.8 | 12.9 | 0.00 | 0.38 | 0.03 | 89 | 1013.5 |
| 20260505101942 | 5 | 326 | 4.8 | 16.1 | 0.00 | 0.38 | 0.03 | 91 | 1012.5 |
| 20260505101450 | 5 | 36 | 4.8 | 14.5 | 0.00 | 0.38 | 0.03 | 91 | 1012.0 |
| 20260505101444 | 5 | 313 | 4.8 | 16.1 | 0.00 | 0.38 | 0.03 | 91 | 1012.4 |
| 20260505100442 | 6 | 48 | 4.8 | 14.5 | 0.00 | 0.38 | 0.03 | 91 | 1011.9 |
| 20260505095942 | 6 | 328 | 4.8 | 14.5 | 0.00 | 0.38 | 0.03 | 91 | 1012.0 |
| 20260505095447 | 6 | 341 | 3.2 | 12.9 | 0.00 | 0.38 | 0.03 | 90 | 1012.2 |
| 20260505095443 | 6 | 348 | 4.8 | 12.9 | 0.00 | 0.38 | 0.03 | 90 | 1012.0 |
| 20260505094444 | 6 | 10 | 4.8 | 14.5 | 0.00 | 0.38 | 0.03 | 90 | 1012.2 |
| 20260505093943 | 6 | 316 | 4.8 | 14.5 | 0.00 | 0.38 | 0.03 | 90 | 1012.2 |
| 20260505093447 | 6 | 338 | 3.2 | 8.0 | 0.00 | 0.38 | 0.03 | 90 | 1012.2 |
| 20260505093443 | 6 | 2 | 4.8 | 12.9 | 0.00 | 0.38 | 0.03 | 90 | 1012.2 |
| 20260505092443 | 7 | 351 | 4.8 | 9.7 | 0.00 | 0.38 | 0.03 | 90 | 1012.2 |
| 20260505091954 | 8 | 1 | 0.0 | 1.6 | 0.00 | 0.38 | 0.03 | 93 | 1011.8 |
| 20260505091942 | 7 | 353 | 3.2 | 12.9 | 0.00 | 0.38 | 0.03 | 90 | 1012.0 |
| 20260505091443 | 8 | 349 | 0.0 | 12.9 | 0.00 | 0.38 | 0.03 | 93 | 1011.9 |
| 20260505090942 | 8 | 356 | 0.0 | 1.6 | 0.00 | 0.38 | 0.03 | 93 | 1011.8 |
| 20260505090604 | 8 | 319 | 0.0 | 3.2 | 0.00 | 0.38 | 0.03 | 93 | 1011.8 |
| 20260505085439 | 8 | 303 | 0.0 | 3.2 | 0.00 | 0.38 | 0.03 | 93 | 1011.8 |
| 20260505084936 | 8 | 313 | 0.0 | 1.6 | 0.00 | 0.38 | 0.03 | 93 | 1011.8 |
| 20260505083942 | 8 | 342 | 0.0 | 1.6 | 0.00 | 0.38 | 0.03 | 93 | 1011.9 |
| 20260505083935 | 8 | 336 | 0.0 | 1.6 | 0.00 | 0.38 | 0.03 | 93 | 1011.8 |
| 20260505083432 | 8 | 342 | 0.0 | 1.6 | 0.00 | 0.38 | 0.03 | 93 | 1011.8 |
| 20260505082432 | 8 | 153 | 0.0 | 0.0 | 0.00 | 0.38 | 0.03 | 93 | 1011.7 |
| 20260505081930 | 8 | 152 | 0.0 | 0.0 | 0.00 | 0.38 | 0.03 | 93 | 1011.8 |
| 20260505081429 | 8 | 153 | 0.0 | 0.0 | 0.00 | 0.38 | 0.03 | 93 | 1011.8 |
| 20260505080933 | 8 | 152 | 0.0 | 0.0 | 0.03 | 0.38 | 0.03 | 93 | 1011.9 |
| 20260505080926 | 8 | 152 | 0.0 | 0.0 | 0.00 | 0.38 | 0.03 | 93 | 1011.8 |
| 20260505075928 | 8 | 153 | 0.0 | 0.0 | 0.03 | 0.38 | 0.03 | 93 | 1012.0 |
| 20260505075427 | 7 | 153 | 0.0 | 0.0 | 0.03 | 0.38 | 0.03 | 93 | 1011.9 |
| 20260505074926 | 7 | 152 | 0.0 | 0.0 | 0.03 | 0.38 | 0.03 | 93 | 1011.8 |
| 20260505074426 | 8 | 153 | 0.0 | 0.0 | 0.03 | 0.38 | 0.03 | 93 | 1012.0 |
| 20260505073927 | 8 | 152 | 0.0 | 0.0 | 0.03 | 0.38 | 0.03 | 93 | 1012.0 |
| 20260505073424 | 8 | 152 | 0.0 | 0.0 | 0.03 | 0.38 | 0.03 | 92 | 1012.0 |
| 20260505072924 | 8 | 153 | 0.0 | 0.0 | 0.03 | 0.38 | 0.03 | 92 | 1012.2 |
| 20260505072423 | 8 | 153 | 0.0 | 0.0 | 0.03 | 0.38 | 0.03 | 92 | 1012.3 |
| 20260505071922 | 8 | 153 | 0.0 | 0.0 | 0.03 | 0.38 | 0.03 | 92 | 1012.5 |
| 20260505071422 | 8 | 153 | 0.0 | 0.0 | 0.03 | 0.38 | 0.03 | 92 | 1012.5 |
| 20260505070921 | 8 | 153 | 0.0 | 0.0 | 0.03 | 0.38 | 0.03 | 92 | 1012.5 |
| 20260505070421 | 8 | 153 | 0.0 | 1.6 | 0.00 | 0.36 | 0.03 | 92 | 1012.4 |
| 20260505065921 | 8 | 195 | 0.0 | 1.6 | 0.00 | 0.36 | 0.00 | 92 | 1012.5 |
| 20260505065421 | 8 | 174 | 0.0 | 1.6 | 0.00 | 0.36 | 0.00 | 92 | 1012.5 |
| 20260505064921 | 8 | 128 | 0.0 | 1.6 | 0.00 | 0.36 | 0.00 | 92 | 1012.5 |
| 20260505064426 | 8 | 126 | 0.0 | 1.6 | 0.00 | 0.36 | 0.00 | 92 | 1012.5 |
| 20260505064420 | 8 | 128 | 0.0 | 1.6 | 0.00 | 0.36 | 0.00 | 92 | 1012.6 |
| 20260505063418 | 8 | 126 | 0.0 | 0.0 | 0.00 | 0.36 | 0.00 | 92 | 1012.6 |
| 20260505062925 | 8 | 126 | 0.0 | 1.6 | 0.00 | 0.36 | 0.00 | 92 | 1012.6 |
| 20260505062918 | 8 | 126 | 0.0 | 0.0 | 0.00 | 0.36 | 0.00 | 92 | 1012.5 |
| 20260505061926 | 8 | 290 | 0.0 | 0.0 | 0.00 | 0.36 | 0.00 | 92 | 1012.5 |
| 20260505061919 | 8 | 126 | 0.0 | 1.6 | 0.00 | 0.36 | 0.00 | 92 | 1012.5 |
| 20260505061536 | 8 | 290 | 0.0 | 0.0 | 0.00 | 0.36 | 0.00 | 92 | 1012.6 |
| 20260505060417 | 8 | 290 | 0.0 | 0.0 | 0.00 | 0.36 | 0.00 | 91 | 1012.5 |
| 20260505055925 | 8 | 290 | 0.0 | 0.0 | 0.00 | 0.36 | 0.36 | 91 | 1012.8 |
| 20260505055918 | 8 | 290 | 0.0 | 0.0 | 0.00 | 0.36 | 0.36 | 91 | 1012.6 |
| 20260505055417 | 8 | 291 | 0.0 | 0.0 | 0.00 | 0.36 | 0.36 | 91 | 1012.8 |
| 20260505054416 | 7 | 309 | 0.0 | 0.0 | 0.00 | 0.36 | 0.36 | 91 | 1013.0 |
| 20260505053917 | 7 | 309 | 0.0 | 0.0 | 0.00 | 0.36 | 0.36 | 91 | 1012.9 |
| 20260505053417 | 7 | 309 | 0.0 | 0.0 | 0.00 | 0.36 | 0.36 | 91 | 1012.5 |
| 20260505052923 | 7 | 309 | 0.0 | 0.0 | 0.00 | 0.36 | 0.36 | 90 | 1012.8 |
| 20260505052917 | 7 | 310 | 0.0 | 0.0 | 0.00 | 0.36 | 0.36 | 90 | 1012.6 |
| 20260505051918 | 7 | 310 | 0.0 | 0.0 | 0.03 | 0.36 | 0.36 | 90 | 1012.6 |
| 20260505051416 | 8 | 310 | 0.0 | 0.0 | 0.03 | 0.36 | 0.36 | 90 | 1012.8 |
| 20260505050917 | 8 | 310 | 0.0 | 0.0 | 0.03 | 0.36 | 0.36 | 90 | 1012.9 |
| 20260505050421 | 8 | 310 | 0.0 | 0.0 | 0.05 | 0.36 | 0.36 | 89 | 1013.0 |
| 20260505050415 | 8 | 310 | 0.0 | 0.0 | 0.05 | 0.36 | 0.36 | 90 | 1013.1 |
| 20260505041411 | 8 | 308 | 0.0 | 4.8 | 0.25 | 0.33 | 0.33 | 87 | 1013.2 |
| 20260505040911 | 8 | 304 | 1.6 | 4.8 | 0.28 | 0.33 | 0.33 | 87 | 1013.4 |
| 20260505040409 | 8 | 297 | 1.6 | 8.0 | 0.25 | 0.30 | 0.30 | 86 | 1013.5 |
| 20260505035909 | 8 | 326 | 1.6 | 11.3 | 0.25 | 0.30 | 0.30 | 85 | 1013.2 |
| 20260505035409 | 8 | 302 | 1.6 | 11.3 | 0.23 | 0.28 | 0.28 | 85 | 1013.2 |
| 20260505034909 | 8 | 353 | 0.0 | 9.7 | 0.20 | 0.25 | 0.25 | 86 | 1013.1 |
| 20260505034407 | 9 | 330 | 0.0 | 6.4 | 0.20 | 0.25 | 0.25 | 85 | 1013.2 |
| 20260505033913 | 9 | 271 | 0.0 | 3.2 | 0.15 | 0.20 | 0.20 | 83 | 1013.1 |
| 20260505033906 | 9 | 1 | 0.0 | 6.4 | 0.18 | 0.23 | 0.23 | 84 | 1013.1 |
| 20260505032907 | 9 | 323 | 0.0 | 4.8 | 0.13 | 0.18 | 0.18 | 81 | 1013.1 |
| 20260505032406 | 10 | 303 | 1.6 | 4.8 | 0.10 | 0.15 | 0.15 | 80 | 1013.1 |
| 20260505031906 | 10 | 342 | 3.2 | 9.7 | 0.08 | 0.13 | 0.13 | 78 | 1012.9 |
| 20260505031406 | 10 | 342 | 3.2 | 9.7 | 0.03 | 0.08 | 0.10 | 74 | 1012.8 |
| 20260505030907 | 11 | 309 | 0.0 | 9.7 | 0.00 | 0.05 | 0.05 | 68 | 1012.6 |
| 20260505030406 | 11 | 312 | 1.6 | 9.7 | 0.00 | 0.05 | 0.05 | 66 | 1012.5 |
| 20260505025908 | 11 | 356 | 0.0 | 3.2 | 0.00 | 0.05 | 0.05 | 66 | 1012.4 |
| 20260505025406 | 11 | 303 | 0.0 | 1.6 | 0.00 | 0.05 | 0.05 | 66 | 1011.9 |
| 20260505024906 | 11 | 95 | 0.0 | 0.0 | 0.00 | 0.05 | 0.05 | 66 | 1011.8 |
| 20260505024406 | 11 | 95 | 0.0 | 0.0 | 0.00 | 0.05 | 0.05 | 67 | 1011.8 |
| 20260505023906 | 11 | 96 | 0.0 | 0.0 | 0.00 | 0.05 | 0.05 | 69 | 1011.7 |
| 20260505023406 | 11 | 96 | 0.0 | 0.0 | 0.00 | 0.05 | 0.05 | 69 | 1011.7 |
| 20260505022907 | 11 | 95 | 0.0 | 0.0 | 0.00 | 0.05 | 0.05 | 69 | 1011.5 |
| 20260505022407 | 11 | 95 | 0.0 | 0.0 | 0.00 | 0.05 | 0.05 | 69 | 1011.3 |
| 20260505021913 | 11 | 95 | 0.0 | 0.0 | 0.00 | 0.05 | 0.05 | 66 | 1011.3 |
| 20260505021906 | 11 | 95 | 0.0 | 0.0 | 0.00 | 0.05 | 0.05 | 68 | 1011.3 |
| 20260505020911 | 11 | 95 | 0.0 | 0.0 | 0.00 | 0.05 | 0.05 | 67 | 1011.5 |
| 20260505020904 | 11 | 95 | 0.0 | 0.0 | 0.00 | 0.05 | 0.05 | 66 | 1011.2 |
| 20260505015904 | 11 | 95 | 0.0 | 0.0 | 0.00 | 0.05 | 0.05 | 65 | 1011.3 |
| 20260505015403 | 11 | 95 | 0.0 | 0.0 | 0.00 | 0.05 | 0.05 | 64 | 1011.3 |
| 20260505014905 | 11 | 95 | 0.0 | 0.0 | 0.00 | 0.05 | 0.05 | 63 | 1011.3 |
| 20260505014404 | 11 | 96 | 0.0 | 0.0 | 0.03 | 0.05 | 0.05 | 64 | 1011.3 |
| 20260505013903 | 11 | 96 | 0.0 | 1.6 | 0.03 | 0.05 | 0.05 | 64 | 1011.0 |
| 20260505013411 | 12 | 96 | 0.0 | 1.6 | 0.03 | 0.05 | 0.05 | 62 | 1011.0 |
| 20260505013404 | 12 | 96 | 0.0 | 1.6 | 0.03 | 0.05 | 0.05 | 62 | 1010.9 |
| 20260505012411 | 12 | 99 | 1.6 | 4.8 | 0.03 | 0.05 | 0.05 | 61 | 1011.2 |
| 20260505012404 | 12 | 96 | 0.0 | 3.2 | 0.03 | 0.05 | 0.05 | 61 | 1011.2 |
| 20260505011403 | 12 | 352 | 1.6 | 6.4 | 0.03 | 0.05 | 0.05 | 61 | 1011.0 |
| 20260505010901 | 12 | 21 | 1.6 | 6.4 | 0.03 | 0.05 | 0.05 | 62 | 1011.1 |
| 20260505010403 | 12 | 295 | 1.6 | 6.4 | 0.03 | 0.05 | 0.05 | 62 | 1011.0 |
| 20260505005901 | 12 | 345 | 1.6 | 6.4 | 0.03 | 0.05 | 0.05 | 62 | 1011.0 |
| 20260505005401 | 12 | 38 | 1.6 | 6.4 | 0.03 | 0.05 | 0.05 | 63 | 1011.0 |
| 20260505004900 | 12 | 328 | 4.8 | 12.9 | 0.03 | 0.05 | 0.05 | 63 | 1011.1 |
| 20260505004401 | 12 | 328 | 4.8 | 12.9 | 0.00 | 0.03 | 0.03 | 61 | 1011.3 |
| 20260505003900 | 12 | 341 | 6.4 | 17.7 | 0.00 | 0.03 | 0.03 | 61 | 1011.2 |
| 20260505003401 | 12 | 314 | 4.8 | 17.7 | 0.00 | 0.03 | 0.03 | 60 | 1011.2 |
| 20260505002905 | 13 | 296 | 9.7 | 24.1 | 0.00 | 0.03 | 0.03 | 54 | 1011.2 |
| 20260505002901 | 13 | 285 | 6.4 | 17.7 | 0.00 | 0.03 | 0.03 | 58 | 1011.3 |
| 20260505001904 | 15 | 319 | 6.4 | 20.9 | 0.00 | 0.03 | 0.03 | 44 | 1010.9 |
| 20260505001857 | 14 | 302 | 9.7 | 24.1 | 0.00 | 0.03 | 0.03 | 50 | 1011.1 |
| 20260505000858 | 15 | 307 | 3.2 | 14.5 | 0.00 | 0.03 | 0.03 | 44 | 1011.0 |
| 20260505000358 | 15 | 359 | 3.2 | 9.7 | 0.00 | 0.03 | 0.03 | 44 | 1010.7 |
| 20260504235858 | 15 | 295 | 3.2 | 12.9 | 0.00 | 0.03 | 0.03 | 44 | 1010.5 |
| 20260504235358 | 15 | 319 | 4.8 | 12.9 | 0.00 | 0.03 | 0.03 | 44 | 1010.4 |
| 20260504234857 | 15 | 307 | 6.4 | 24.1 | 0.00 | 0.03 | 0.03 | 43 | 1010.2 |
| 20260504234359 | 15 | 330 | 6.4 | 24.1 | 0.00 | 0.03 | 0.03 | 43 | 1009.9 |
| 20260504233913 | 16 | 356 | 6.4 | 20.9 | 0.00 | 0.03 | 0.03 | 38 | 1009.3 |
| 20260504233858 | 15 | 342 | 6.4 | 16.1 | 0.00 | 0.03 | 0.03 | 42 | 1009.7 |
| 20260504233358 | 15 | 302 | 6.4 | 19.3 | 0.00 | 0.03 | 0.03 | 42 | 1009.7 |
| 20260504232857 | 15 | 339 | 6.4 | 19.3 | 0.00 | 0.03 | 0.03 | 41 | 1009.7 |
| 20260504232359 | 16 | 74 | 6.4 | 20.9 | 0.00 | 0.03 | 0.03 | 40 | 1009.6 |
| 20260504231402 | 16 | 333 | 8.0 | 22.5 | 0.00 | 0.03 | 0.03 | 37 | 1009.4 |
| 20260504231356 | 16 | 19 | 8.0 | 20.9 | 0.00 | 0.03 | 0.03 | 37 | 1009.4 |
| 20260504230855 | 16 | 344 | 8.0 | 22.5 | 0.00 | 0.03 | 0.03 | 36 | 1009.3 |
| 20260504230514 | 16 | 313 | 8.0 | 30.6 | 0.00 | 0.03 | 0.03 | 36 | 1009.0 |
| 20260504225352 | 16 | 301 | 8.0 | 30.6 | 0.00 | 0.03 | 0.03 | 36 | 1008.9 |
| 20260504224852 | 16 | 333 | 8.0 | 20.9 | 0.00 | 0.03 | 0.03 | 35 | 1008.9 |
| 20260504224351 | 16 | 353 | 8.0 | 25.7 | 0.00 | 0.03 | 0.03 | 36 | 1009.0 |
| 20260504223851 | 16 | 29 | 6.4 | 25.7 | 0.00 | 0.03 | 0.03 | 35 | 1009.0 |
| 20260504223353 | 17 | 308 | 6.4 | 19.3 | 0.00 | 0.03 | 0.03 | 34 | 1009.1 |
| 20260504222851 | 17 | 339 | 8.0 | 19.3 | 0.00 | 0.03 | 0.03 | 33 | 1009.1 |
| 20260504222350 | 17 | 17 | 8.0 | 17.7 | 0.00 | 0.03 | 0.03 | 32 | 1009.2 |
| 20260504221850 | 17 | 50 | 9.7 | 20.9 | 0.00 | 0.03 | 0.03 | 31 | 1009.2 |
| 20260504221349 | 18 | 10 | 8.0 | 20.9 | 0.00 | 0.03 | 0.03 | 30 | 1009.1 |
| 20260504220850 | 19 | 41 | 6.4 | 20.9 | 0.00 | 0.03 | 0.03 | 27 | 1008.7 |
| 20260504220350 | 19 | 46 | 4.8 | 14.5 | 0.00 | 0.03 | 0.03 | 24 | 1008.5 |
| 20260504215850 | 19 | 41 | 4.8 | 12.9 | 0.00 | 0.03 | 0.03 | 24 | 1008.5 |
| 20260504215351 | 20 | 65 | 3.2 | 12.9 | 0.00 | 0.03 | 0.03 | 24 | 1008.4 |
| 20260504214850 | 20 | 342 | 1.6 | 8.0 | 0.00 | 0.03 | 0.03 | 24 | 1008.5 |
| 20260504214347 | 20 | 30 | 3.2 | 6.4 | 0.00 | 0.03 | 0.03 | 24 | 1008.6 |
| 20260504213846 | 20 | 47 | 3.2 | 8.0 | 0.00 | 0.03 | 0.03 | 25 | 1008.6 |
| 20260504213346 | 20 | 53 | 3.2 | 11.3 | 0.00 | 0.03 | 0.03 | 25 | 1008.5 |
| 20260504212846 | 20 | 18 | 3.2 | 11.3 | 0.00 | 0.03 | 0.03 | 25 | 1008.6 |
| 20260504212345 | 20 | 39 | 3.2 | 9.7 | 0.00 | 0.03 | 0.03 | 25 | 1008.7 |
| 20260504211846 | 20 | 335 | 4.8 | 12.9 | 0.00 | 0.03 | 0.03 | 25 | 1008.7 |
| 20260504211346 | 20 | 338 | 4.8 | 12.9 | 0.00 | 0.03 | 0.03 | 26 | 1008.9 |
| 20260504210846 | 20 | 1 | 4.8 | 17.7 | 0.00 | 0.03 | 0.03 | 26 | 1008.9 |
| 20260504210346 | 20 | 340 | 6.4 | 17.7 | 0.00 | 0.03 | 0.03 | 27 | 1009.0 |
| 20260504205845 | 20 | 300 | 6.4 | 12.9 | 0.00 | 0.03 | 0.03 | 27 | 1009.1 |
| 20260504205345 | 20 | 46 | 6.4 | 16.1 | 0.00 | 0.03 | 0.03 | 27 | 1009.1 |
| 20260504204843 | 20 | 337 | 8.0 | 19.3 | 0.00 | 0.03 | 0.03 | 27 | 1009.1 |
| 20260504204504 | 19 | 294 | 8.0 | 17.7 | 0.00 | 0.03 | 0.03 | 27 | 1009.3 |
| 20260504204350 | 20 | 326 | 8.0 | 17.7 | 0.00 | 0.03 | 0.03 | 26 | 1009.3 |
| 20260504204343 | 20 | 309 | 8.0 | 19.3 | 0.00 | 0.03 | 0.03 | 27 | 1009.3 |
| 20260504204124 | 19 | 17 | 9.7 | 19.3 | 0.00 | 0.03 | 0.03 | 28 | 1009.6 |
| 20260504202344 | 19 | 28 | 8.0 | 19.3 | 0.00 | 0.03 | 0.03 | 28 | 1009.7 |
| 20260504201843 | 19 | 300 | 8.0 | 20.9 | 0.00 | 0.03 | 0.03 | 28 | 1009.8 |
| 20260504201344 | 19 | 331 | 8.0 | 20.9 | 0.00 | 0.03 | 0.03 | 27 | 1009.8 |
| 20260504200843 | 19 | 336 | 8.0 | 19.3 | 0.00 | 0.03 | 0.03 | 27 | 1009.7 |
| 20260504200344 | 19 | 337 | 6.4 | 16.1 | 0.00 | 0.03 | 0.03 | 28 | 1009.8 |
| 20260504195843 | 19 | 341 | 6.4 | 16.1 | 0.00 | 0.03 | 0.03 | 28 | 1009.8 |
| 20260504195343 | 20 | 37 | 8.0 | 17.7 | 0.00 | 0.03 | 0.03 | 26 | 1009.8 |
| 20260504194841 | 20 | 72 | 8.0 | 17.7 | 0.00 | 0.03 | 0.03 | 27 | 1009.8 |
| 20260504194342 | 20 | 329 | 8.0 | 22.5 | 0.00 | 0.03 | 0.03 | 27 | 1009.8 |
| 20260504193843 | 20 | 314 | 8.0 | 22.5 | 0.00 | 0.03 | 0.03 | 28 | 1009.8 |
| 20260504193342 | 20 | 299 | 9.7 | 19.3 | 0.00 | 0.03 | 0.03 | 27 | 1009.6 |
| 20260504192842 | 20 | 331 | 9.7 | 22.5 | 0.00 | 0.03 | 0.03 | 27 | 1009.7 |
| 20260504192341 | 20 | 354 | 8.0 | 22.5 | 0.00 | 0.03 | 0.03 | 27 | 1009.6 |
| 20260504191842 | 19 | 354 | 8.0 | 19.3 | 0.00 | 0.03 | 0.03 | 28 | 1009.6 |
| 20260504191348 | 18 | 299 | 8.0 | 14.5 | 0.00 | 0.03 | 0.03 | 33 | 1009.6 |
| 20260504191342 | 18 | 290 | 8.0 | 16.1 | 0.00 | 0.03 | 0.03 | 30 | 1009.4 |
| 20260504190337 | 17 | 353 | 8.0 | 17.7 | 0.00 | 0.03 | 0.03 | 33 | 1009.6 |
| 20260504185838 | 17 | 32 | 8.0 | 17.7 | 0.00 | 0.03 | 0.03 | 32 | 1009.8 |
| 20260504185337 | 17 | 43 | 6.4 | 17.7 | 0.00 | 0.03 | 0.03 | 33 | 1009.8 |
| 20260504184840 | 17 | 342 | 1.6 | 11.3 | 0.03 | 0.03 | 0.03 | 32 | 1009.9 |
| 20260504184834 | 17 | 309 | 4.8 | 17.7 | 0.00 | 0.03 | 0.03 | 31 | 1009.8 |
| 20260504183838 | 17 | 350 | 1.6 | 11.3 | 0.03 | 0.03 | 0.03 | 34 | 1010.3 |
| 20260504183834 | 17 | 355 | 1.6 | 8.0 | 0.03 | 0.03 | 0.03 | 35 | 1010.3 |
| 20260504182833 | 17 | 168 | 3.2 | 11.3 | 0.03 | 0.03 | 0.03 | 31 | 1010.3 |
| 20260504182337 | 17 | 172 | 6.4 | 14.5 | 0.03 | 0.03 | 0.03 | 29 | 1010.4 |
| 20260504182332 | 18 | 162 | 8.0 | 17.7 | 0.03 | 0.03 | 0.03 | 27 | 1010.2 |
| 20260504181331 | 18 | 87 | 6.4 | 17.7 | 0.03 | 0.03 | 0.03 | 25 | 1009.8 |
| 20260504180833 | 18 | 73 | 6.4 | 17.7 | 0.03 | 0.03 | 0.03 | 25 | 1009.7 |
| 20260504180330 | 18 | 32 | 4.8 | 16.1 | 0.03 | 0.03 | 0.03 | 23 | 1009.8 |
| 20260504175831 | 18 | 42 | 3.2 | 8.0 | 0.03 | 0.03 | 0.03 | 28 | 1009.6 |
| 20260504175331 | 18 | 107 | 3.2 | 9.7 | 0.03 | 0.03 | 0.03 | 28 | 1009.6 |
| 20260504174828 | 18 | 146 | 3.2 | 9.7 | 0.03 | 0.03 | 0.03 | 29 | 1009.6 |
| 20260504174327 | 20 | 32 | 3.2 | 9.7 | 0.00 | 0.00 | 0.00 | 28 | 1009.7 |
| 20260504173835 | 20 | 6 | 1.6 | 6.4 | 0.00 | 0.00 | 0.00 | 21 | 1009.6 |
| 20260504173828 | 20 | 7 | 3.2 | 9.7 | 0.00 | 0.00 | 0.00 | 23 | 1009.6 |
| 20260504172825 | 20 | 301 | 3.2 | 9.7 | 0.00 | 0.00 | 0.00 | 21 | 1009.7 |
| 20260504172326 | 21 | 4 | 4.8 | 9.7 | 0.00 | 0.00 | 0.00 | 21 | 1009.7 |
| 20260504171826 | 21 | 338 | 4.8 | 9.7 | 0.00 | 0.00 | 0.00 | 20 | 1009.7 |
| 20260504171325 | 21 | 58 | 3.2 | 9.7 | 0.00 | 0.00 | 0.00 | 20 | 1009.8 |
| 20260504170825 | 21 | 343 | 3.2 | 8.0 | 0.00 | 0.00 | 0.00 | 21 | 1009.8 |
| 20260504170325 | 21 | 30 | 3.2 | 8.0 | 0.00 | 0.00 | 0.00 | 21 | 1009.9 |
| 20260504160321 | 20 | 238 | 1.6 | 8.0 | 0.00 | 0.00 | 0.00 | 24 | 1010.5 |
| 20260504150320 | 16 | 121 | 0.0 | 1.6 | 0.00 | 0.00 | 0.00 | 30 | 1011.2 |
| 20260504140435 | 10 | 51 | 0.0 | 0.0 | 0.00 | 0.00 | 0.00 | 50 | 1011.3 |
| 20260504130816 | 7 | 15 | 0.0 | 0.0 | 0.00 | 0.00 | 0.00 | 53 | 1010.9 |
| 20260504130810 | 7 | 16 | 0.0 | 0.0 | 0.00 | 0.00 | 0.00 | 54 | 1011.0 |
| 20260504130435 | 7 | 18 | 0.0 | 0.0 | 0.00 | 0.00 | 0.00 | 55 | 1010.9 |
| 20260504130431 | 7 | 16 | 0.0 | 0.0 | 0.00 | 0.00 | 0.00 | 53 | 1010.9 |